sensor_id;sensor_type;location;lat;lon;timestamp;P1;durP1;ratioP1;P2;durP2;ratioP2
23228;SDS011;11783;50.350;6.576;2023-07-16T00:01:58;3.95;;;1.52;;
23228;SDS011;11783;50.350;6.576;2023-07-16T00:04:24;5.82;;;1.33;;
23228;SDS011;11783;50.350;6.576;2023-07-16T00:06:49;4.47;;;1.42;;
23228;SDS011;11783;50.350;6.576;2023-07-16T00:09:15;4.10;;;1.45;;
23228;SDS011;11783;50.350;6.576;2023-07-16T00:11:40;4.55;;;1.60;;
23228;SDS011;11783;50.350;6.576;2023-07-16T00:14:05;6.05;;;1.70;;
23228;SDS011;11783;50.350;6.576;2023-07-16T00:16:31;4.85;;;1.50;;
23228;SDS011;11783;50.350;6.576;2023-07-16T00:18:56;4.03;;;1.70;;
23228;SDS011;11783;50.350;6.576;2023-07-16T00:21:22;4.45;;;1.55;;
23228;SDS011;11783;50.350;6.576;2023-07-16T00:23:47;4.22;;;1.45;;
23228;SDS011;11783;50.350;6.576;2023-07-16T00:26:13;6.55;;;2.10;;
23228;SDS011;11783;50.350;6.576;2023-07-16T00:28:39;5.15;;;1.45;;
23228;SDS011;11783;50.350;6.576;2023-07-16T00:31:04;5.35;;;1.50;;
23228;SDS011;11783;50.350;6.576;2023-07-16T00:33:29;6.45;;;1.70;;
23228;SDS011;11783;50.350;6.576;2023-07-16T00:35:55;4.50;;;1.50;;
23228;SDS011;11783;50.350;6.576;2023-07-16T00:38:20;6.85;;;1.67;;
23228;SDS011;11783;50.350;6.576;2023-07-16T00:40:46;4.93;;;1.70;;
23228;SDS011;11783;50.350;6.576;2023-07-16T00:43:11;5.90;;;1.77;;
23228;SDS011;11783;50.350;6.576;2023-07-16T00:45:38;4.30;;;1.65;;
23228;SDS011;11783;50.350;6.576;2023-07-16T00:48:04;6.30;;;1.60;;
23228;SDS011;11783;50.350;6.576;2023-07-16T00:50:31;7.07;;;1.60;;
23228;SDS011;11783;50.350;6.576;2023-07-16T00:53:02;3.72;;;1.30;;
23228;SDS011;11783;50.350;6.576;2023-07-16T00:55:31;3.97;;;1.50;;
23228;SDS011;11783;50.350;6.576;2023-07-16T00:57:58;5.10;;;1.70;;
23228;SDS011;11783;50.350;6.576;2023-07-16T01:00:27;5.65;;;1.92;;
23228;SDS011;11783;50.350;6.576;2023-07-16T01:02:53;4.53;;;1.73;;
23228;SDS011;11783;50.350;6.576;2023-07-16T01:05:18;4.07;;;1.70;;
23228;SDS011;11783;50.350;6.576;2023-07-16T01:07:47;5.30;;;1.75;;
23228;SDS011;11783;50.350;6.576;2023-07-16T01:10:22;5.40;;;2.00;;
23228;SDS011;11783;50.350;6.576;2023-07-16T01:12:51;10.43;;;1.75;;
23228;SDS011;11783;50.350;6.576;2023-07-16T01:15:19;4.68;;;1.40;;
23228;SDS011;11783;50.350;6.576;2023-07-16T01:17:45;10.95;;;1.70;;
23228;SDS011;11783;50.350;6.576;2023-07-16T01:20:10;5.82;;;1.60;;
23228;SDS011;11783;50.350;6.576;2023-07-16T01:25:27;6.57;;;1.60;;
23228;SDS011;11783;50.350;6.576;2023-07-16T01:31:11;6.75;;;1.77;;
23228;SDS011;11783;50.350;6.576;2023-07-16T01:33:37;5.20;;;1.67;;
23228;SDS011;11783;50.350;6.576;2023-07-16T01:36:06;7.10;;;1.60;;
23228;SDS011;11783;50.350;6.576;2023-07-16T01:38:33;6.80;;;1.75;;
23228;SDS011;11783;50.350;6.576;2023-07-16T01:41:02;5.22;;;1.90;;
23228;SDS011;11783;50.350;6.576;2023-07-16T01:43:27;6.43;;;1.63;;
23228;SDS011;11783;50.350;6.576;2023-07-16T01:45:53;5.75;;;1.77;;
23228;SDS011;11783;50.350;6.576;2023-07-16T01:48:29;4.85;;;1.70;;
23228;SDS011;11783;50.350;6.576;2023-07-16T01:50:57;7.53;;;1.70;;
23228;SDS011;11783;50.350;6.576;2023-07-16T01:53:23;7.47;;;1.88;;
23228;SDS011;11783;50.350;6.576;2023-07-16T01:55:49;10.40;;;2.15;;
23228;SDS011;11783;50.350;6.576;2023-07-16T01:58:14;5.28;;;1.90;;
23228;SDS011;11783;50.350;6.576;2023-07-16T02:00:39;5.82;;;1.77;;
23228;SDS011;11783;50.350;6.576;2023-07-16T02:03:05;5.95;;;1.58;;
23228;SDS011;11783;50.350;6.576;2023-07-16T02:05:30;4.75;;;1.73;;
23228;SDS011;11783;50.350;6.576;2023-07-16T02:07:56;5.95;;;2.03;;
23228;SDS011;11783;50.350;6.576;2023-07-16T02:10:21;5.53;;;1.60;;
23228;SDS011;11783;50.350;6.576;2023-07-16T02:12:46;9.07;;;1.73;;
23228;SDS011;11783;50.350;6.576;2023-07-16T02:15:12;10.27;;;2.10;;
23228;SDS011;11783;50.350;6.576;2023-07-16T02:17:37;4.72;;;1.50;;
23228;SDS011;11783;50.350;6.576;2023-07-16T02:20:03;6.43;;;1.70;;
23228;SDS011;11783;50.350;6.576;2023-07-16T02:22:30;7.43;;;1.73;;
23228;SDS011;11783;50.350;6.576;2023-07-16T02:24:56;5.63;;;1.92;;
23228;SDS011;11783;50.350;6.576;2023-07-16T02:27:21;7.18;;;1.83;;
23228;SDS011;11783;50.350;6.576;2023-07-16T02:29:46;6.18;;;1.65;;
23228;SDS011;11783;50.350;6.576;2023-07-16T02:32:12;7.43;;;1.83;;
23228;SDS011;11783;50.350;6.576;2023-07-16T02:34:37;6.18;;;1.95;;
23228;SDS011;11783;50.350;6.576;2023-07-16T02:37:03;5.68;;;1.92;;
23228;SDS011;11783;50.350;6.576;2023-07-16T02:39:28;4.78;;;1.63;;
23228;SDS011;11783;50.350;6.576;2023-07-16T02:41:54;7.15;;;1.88;;
23228;SDS011;11783;50.350;6.576;2023-07-16T02:44:19;8.07;;;2.00;;
23228;SDS011;11783;50.350;6.576;2023-07-16T02:46:44;5.93;;;2.00;;
23228;SDS011;11783;50.350;6.576;2023-07-16T02:49:09;6.40;;;1.88;;
23228;SDS011;11783;50.350;6.576;2023-07-16T02:51:35;6.43;;;1.70;;
23228;SDS011;11783;50.350;6.576;2023-07-16T02:54:00;5.75;;;1.80;;
23228;SDS011;11783;50.350;6.576;2023-07-16T02:56:25;6.32;;;2.13;;
23228;SDS011;11783;50.350;6.576;2023-07-16T02:58:51;5.88;;;2.00;;
23228;SDS011;11783;50.350;6.576;2023-07-16T03:01:16;9.27;;;2.13;;
23228;SDS011;11783;50.350;6.576;2023-07-16T03:03:41;5.90;;;1.70;;
23228;SDS011;11783;50.350;6.576;2023-07-16T03:06:07;5.28;;;1.90;;
23228;SDS011;11783;50.350;6.576;2023-07-16T03:08:33;4.63;;;1.58;;
23228;SDS011;11783;50.350;6.576;2023-07-16T03:10:59;6.10;;;1.77;;
23228;SDS011;11783;50.350;6.576;2023-07-16T03:13:24;8.50;;;2.30;;
23228;SDS011;11783;50.350;6.576;2023-07-16T03:15:49;8.00;;;1.67;;
23228;SDS011;11783;50.350;6.576;2023-07-16T03:18:17;5.47;;;2.13;;
23228;SDS011;11783;50.350;6.576;2023-07-16T03:20:43;4.88;;;1.90;;
23228;SDS011;11783;50.350;6.576;2023-07-16T03:23:09;8.40;;;2.13;;
23228;SDS011;11783;50.350;6.576;2023-07-16T03:25:34;5.75;;;2.20;;
23228;SDS011;11783;50.350;6.576;2023-07-16T03:27:59;6.15;;;1.98;;
23228;SDS011;11783;50.350;6.576;2023-07-16T03:30:25;8.23;;;2.40;;
23228;SDS011;11783;50.350;6.576;2023-07-16T03:32:50;8.25;;;1.90;;
23228;SDS011;11783;50.350;6.576;2023-07-16T03:35:15;6.55;;;2.20;;
23228;SDS011;11783;50.350;6.576;2023-07-16T03:37:41;5.97;;;2.10;;
23228;SDS011;11783;50.350;6.576;2023-07-16T03:40:16;7.82;;;2.03;;
23228;SDS011;11783;50.350;6.576;2023-07-16T03:42:44;6.72;;;1.90;;
23228;SDS011;11783;50.350;6.576;2023-07-16T03:45:10;6.45;;;1.77;;
23228;SDS011;11783;50.350;6.576;2023-07-16T03:47:36;8.55;;;2.22;;
23228;SDS011;11783;50.350;6.576;2023-07-16T03:50:01;6.05;;;2.08;;
23228;SDS011;11783;50.350;6.576;2023-07-16T03:52:27;4.85;;;2.00;;
23228;SDS011;11783;50.350;6.576;2023-07-16T03:54:53;8.88;;;2.50;;
23228;SDS011;11783;50.350;6.576;2023-07-16T03:57:19;13.10;;;2.40;;
23228;SDS011;11783;50.350;6.576;2023-07-16T03:59:45;10.43;;;2.20;;
23228;SDS011;11783;50.350;6.576;2023-07-16T04:02:10;8.13;;;2.30;;
23228;SDS011;11783;50.350;6.576;2023-07-16T04:04:36;7.72;;;2.17;;
23228;SDS011;11783;50.350;6.576;2023-07-16T04:07:01;9.98;;;2.30;;
23228;SDS011;11783;50.350;6.576;2023-07-16T04:09:26;9.27;;;2.42;;
23228;SDS011;11783;50.350;6.576;2023-07-16T04:11:52;7.97;;;2.40;;
23228;SDS011;11783;50.350;6.576;2023-07-16T04:14:17;7.60;;;2.45;;
23228;SDS011;11783;50.350;6.576;2023-07-16T04:16:43;11.15;;;2.60;;
23228;SDS011;11783;50.350;6.576;2023-07-16T04:19:09;11.48;;;3.22;;
23228;SDS011;11783;50.350;6.576;2023-07-16T04:21:34;9.65;;;3.03;;
23228;SDS011;11783;50.350;6.576;2023-07-16T04:24:01;7.68;;;2.50;;
23228;SDS011;11783;50.350;6.576;2023-07-16T04:26:27;8.80;;;2.90;;
23228;SDS011;11783;50.350;6.576;2023-07-16T04:28:52;9.65;;;2.70;;
23228;SDS011;11783;50.350;6.576;2023-07-16T04:31:17;8.30;;;2.92;;
23228;SDS011;11783;50.350;6.576;2023-07-16T04:33:43;8.32;;;2.78;;
23228;SDS011;11783;50.350;6.576;2023-07-16T04:36:08;12.27;;;2.80;;
23228;SDS011;11783;50.350;6.576;2023-07-16T04:38:33;8.52;;;2.90;;
23228;SDS011;11783;50.350;6.576;2023-07-16T04:40:59;7.47;;;3.10;;
23228;SDS011;11783;50.350;6.576;2023-07-16T04:43:24;11.02;;;2.95;;
23228;SDS011;11783;50.350;6.576;2023-07-16T04:45:49;8.93;;;3.20;;
23228;SDS011;11783;50.350;6.576;2023-07-16T04:48:15;9.65;;;2.90;;
23228;SDS011;11783;50.350;6.576;2023-07-16T04:50:40;9.52;;;3.30;;
23228;SDS011;11783;50.350;6.576;2023-07-16T04:53:05;11.43;;;3.83;;
23228;SDS011;11783;50.350;6.576;2023-07-16T04:55:37;9.95;;;3.20;;
23228;SDS011;11783;50.350;6.576;2023-07-16T04:58:03;7.70;;;3.15;;
23228;SDS011;11783;50.350;6.576;2023-07-16T05:00:28;8.07;;;3.05;;
23228;SDS011;11783;50.350;6.576;2023-07-16T05:02:54;11.68;;;3.42;;
23228;SDS011;11783;50.350;6.576;2023-07-16T05:05:19;14.15;;;3.53;;
23228;SDS011;11783;50.350;6.576;2023-07-16T05:07:44;10.65;;;2.97;;
23228;SDS011;11783;50.350;6.576;2023-07-16T05:10:10;7.38;;;3.22;;
23228;SDS011;11783;50.350;6.576;2023-07-16T05:12:35;8.98;;;3.40;;
23228;SDS011;11783;50.350;6.576;2023-07-16T05:15:01;8.23;;;3.58;;
23228;SDS011;11783;50.350;6.576;2023-07-16T05:17:26;10.38;;;3.40;;
23228;SDS011;11783;50.350;6.576;2023-07-16T05:19:51;10.75;;;4.25;;
23228;SDS011;11783;50.350;6.576;2023-07-16T05:22:17;7.35;;;3.20;;
23228;SDS011;11783;50.350;6.576;2023-07-16T05:24:42;10.57;;;3.83;;
23228;SDS011;11783;50.350;6.576;2023-07-16T05:27:07;8.10;;;3.47;;
23228;SDS011;11783;50.350;6.576;2023-07-16T05:29:33;10.63;;;3.97;;
23228;SDS011;11783;50.350;6.576;2023-07-16T05:31:58;8.10;;;3.50;;
23228;SDS011;11783;50.350;6.576;2023-07-16T05:34:23;11.48;;;3.83;;
23228;SDS011;11783;50.350;6.576;2023-07-16T05:36:49;10.05;;;3.58;;
23228;SDS011;11783;50.350;6.576;2023-07-16T05:39:14;12.73;;;3.95;;
23228;SDS011;11783;50.350;6.576;2023-07-16T05:41:40;9.68;;;3.78;;
23228;SDS011;11783;50.350;6.576;2023-07-16T05:44:06;9.18;;;3.63;;
23228;SDS011;11783;50.350;6.576;2023-07-16T05:46:32;11.93;;;4.00;;
23228;SDS011;11783;50.350;6.576;2023-07-16T05:48:58;13.40;;;4.97;;
23228;SDS011;11783;50.350;6.576;2023-07-16T05:51:23;9.18;;;4.25;;
23228;SDS011;11783;50.350;6.576;2023-07-16T05:53:49;12.27;;;3.65;;
23228;SDS011;11783;50.350;6.576;2023-07-16T05:56:14;12.50;;;3.97;;
23228;SDS011;11783;50.350;6.576;2023-07-16T05:58:40;9.63;;;4.13;;
23228;SDS011;11783;50.350;6.576;2023-07-16T06:01:06;11.50;;;4.25;;
23228;SDS011;11783;50.350;6.576;2023-07-16T06:03:31;10.07;;;4.07;;
23228;SDS011;11783;50.350;6.576;2023-07-16T06:05:56;11.20;;;4.60;;
23228;SDS011;11783;50.350;6.576;2023-07-16T06:08:22;11.25;;;4.50;;
23228;SDS011;11783;50.350;6.576;2023-07-16T06:10:49;12.57;;;4.20;;
23228;SDS011;11783;50.350;6.576;2023-07-16T06:13:15;11.32;;;4.10;;
23228;SDS011;11783;50.350;6.576;2023-07-16T06:15:40;10.52;;;4.45;;
23228;SDS011;11783;50.350;6.576;2023-07-16T06:18:06;10.77;;;4.70;;
23228;SDS011;11783;50.350;6.576;2023-07-16T06:20:31;11.25;;;4.80;;
23228;SDS011;11783;50.350;6.576;2023-07-16T06:22:56;10.82;;;4.80;;
23228;SDS011;11783;50.350;6.576;2023-07-16T06:25:22;11.73;;;4.72;;
23228;SDS011;11783;50.350;6.576;2023-07-16T06:27:47;11.52;;;5.13;;
23228;SDS011;11783;50.350;6.576;2023-07-16T06:30:12;14.50;;;5.32;;
23228;SDS011;11783;50.350;6.576;2023-07-16T06:32:38;11.43;;;5.10;;
23228;SDS011;11783;50.350;6.576;2023-07-16T06:35:03;12.90;;;5.00;;
23228;SDS011;11783;50.350;6.576;2023-07-16T06:37:29;12.30;;;5.20;;
23228;SDS011;11783;50.350;6.576;2023-07-16T06:39:54;12.65;;;5.60;;
23228;SDS011;11783;50.350;6.576;2023-07-16T06:42:19;12.65;;;5.03;;
23228;SDS011;11783;50.350;6.576;2023-07-16T06:44:45;11.65;;;5.30;;
23228;SDS011;11783;50.350;6.576;2023-07-16T06:47:10;15.48;;;5.47;;
23228;SDS011;11783;50.350;6.576;2023-07-16T06:49:36;13.95;;;5.60;;
23228;SDS011;11783;50.350;6.576;2023-07-16T06:52:01;12.50;;;5.45;;
23228;SDS011;11783;50.350;6.576;2023-07-16T06:54:27;12.55;;;5.20;;
23228;SDS011;11783;50.350;6.576;2023-07-16T06:56:52;12.40;;;5.45;;
23228;SDS011;11783;50.350;6.576;2023-07-16T06:59:18;12.27;;;5.50;;
23228;SDS011;11783;50.350;6.576;2023-07-16T07:01:43;12.48;;;5.07;;
23228;SDS011;11783;50.350;6.576;2023-07-16T07:04:09;14.93;;;6.40;;
23228;SDS011;11783;50.350;6.576;2023-07-16T07:06:34;14.15;;;5.85;;
23228;SDS011;11783;50.350;6.576;2023-07-16T07:08:59;15.93;;;5.88;;
23228;SDS011;11783;50.350;6.576;2023-07-16T07:11:24;16.48;;;6.57;;
23228;SDS011;11783;50.350;6.576;2023-07-16T07:13:51;12.82;;;6.53;;
23228;SDS011;11783;50.350;6.576;2023-07-16T07:16:16;11.25;;;6.05;;
23228;SDS011;11783;50.350;6.576;2023-07-16T07:18:42;10.75;;;5.72;;
23228;SDS011;11783;50.350;6.576;2023-07-16T07:21:07;12.50;;;6.38;;
23228;SDS011;11783;50.350;6.576;2023-07-16T07:23:33;12.80;;;5.90;;
23228;SDS011;11783;50.350;6.576;2023-07-16T07:25:58;13.18;;;5.65;;
23228;SDS011;11783;50.350;6.576;2023-07-16T07:28:24;13.57;;;6.13;;
23228;SDS011;11783;50.350;6.576;2023-07-16T07:30:50;10.93;;;5.85;;
23228;SDS011;11783;50.350;6.576;2023-07-16T07:33:16;13.68;;;5.80;;
23228;SDS011;11783;50.350;6.576;2023-07-16T07:35:41;10.93;;;5.35;;
23228;SDS011;11783;50.350;6.576;2023-07-16T07:38:06;11.98;;;5.40;;
23228;SDS011;11783;50.350;6.576;2023-07-16T07:40:32;10.48;;;5.03;;
23228;SDS011;11783;50.350;6.576;2023-07-16T07:42:57;11.38;;;4.63;;
23228;SDS011;11783;50.350;6.576;2023-07-16T07:45:23;10.93;;;5.20;;
23228;SDS011;11783;50.350;6.576;2023-07-16T07:47:49;11.98;;;4.80;;
23228;SDS011;11783;50.350;6.576;2023-07-16T07:50:15;11.40;;;4.60;;
23228;SDS011;11783;50.350;6.576;2023-07-16T07:52:40;10.15;;;4.28;;
23228;SDS011;11783;50.350;6.576;2023-07-16T07:55:05;7.68;;;4.45;;
23228;SDS011;11783;50.350;6.576;2023-07-16T07:57:31;11.52;;;4.80;;
23228;SDS011;11783;50.350;6.576;2023-07-16T07:59:56;11.63;;;4.80;;
23228;SDS011;11783;50.350;6.576;2023-07-16T08:02:23;12.38;;;4.70;;
23228;SDS011;11783;50.350;6.576;2023-07-16T08:04:52;11.75;;;4.75;;
23228;SDS011;11783;50.350;6.576;2023-07-16T08:07:18;12.35;;;4.50;;
23228;SDS011;11783;50.350;6.576;2023-07-16T08:09:43;10.82;;;4.68;;
23228;SDS011;11783;50.350;6.576;2023-07-16T08:12:09;11.93;;;5.15;;
23228;SDS011;11783;50.350;6.576;2023-07-16T08:14:35;10.70;;;4.60;;
23228;SDS011;11783;50.350;6.576;2023-07-16T08:17:00;9.32;;;4.25;;
23228;SDS011;11783;50.350;6.576;2023-07-16T08:19:26;11.52;;;4.93;;
23228;SDS011;11783;50.350;6.576;2023-07-16T08:21:51;12.68;;;4.75;;
23228;SDS011;11783;50.350;6.576;2023-07-16T08:24:17;10.65;;;4.80;;
23228;SDS011;11783;50.350;6.576;2023-07-16T08:26:42;9.88;;;4.95;;
23228;SDS011;11783;50.350;6.576;2023-07-16T08:29:08;9.30;;;4.40;;
23228;SDS011;11783;50.350;6.576;2023-07-16T08:31:33;11.95;;;4.85;;
23228;SDS011;11783;50.350;6.576;2023-07-16T08:33:58;10.45;;;4.60;;
23228;SDS011;11783;50.350;6.576;2023-07-16T08:36:24;9.77;;;4.78;;
23228;SDS011;11783;50.350;6.576;2023-07-16T08:38:49;9.20;;;4.72;;
23228;SDS011;11783;50.350;6.576;2023-07-16T08:41:15;8.52;;;4.40;;
23228;SDS011;11783;50.350;6.576;2023-07-16T08:43:40;10.25;;;4.82;;
23228;SDS011;11783;50.350;6.576;2023-07-16T08:46:07;11.15;;;4.25;;
23228;SDS011;11783;50.350;6.576;2023-07-16T08:48:33;8.65;;;3.72;;
23228;SDS011;11783;50.350;6.576;2023-07-16T08:50:59;10.13;;;3.85;;
23228;SDS011;11783;50.350;6.576;2023-07-16T08:53:27;7.72;;;3.70;;
23228;SDS011;11783;50.350;6.576;2023-07-16T08:55:52;9.48;;;4.07;;
23228;SDS011;11783;50.350;6.576;2023-07-16T08:58:18;9.27;;;4.00;;
23228;SDS011;11783;50.350;6.576;2023-07-16T09:00:45;8.30;;;3.60;;
23228;SDS011;11783;50.350;6.576;2023-07-16T09:03:11;8.73;;;3.50;;
23228;SDS011;11783;50.350;6.576;2023-07-16T09:05:46;8.73;;;3.95;;
23228;SDS011;11783;50.350;6.576;2023-07-16T09:08:12;10.15;;;4.25;;
23228;SDS011;11783;50.350;6.576;2023-07-16T09:10:42;8.60;;;4.40;;
23228;SDS011;11783;50.350;6.576;2023-07-16T09:13:08;9.30;;;4.55;;
23228;SDS011;11783;50.350;6.576;2023-07-16T09:15:33;10.20;;;4.25;;
23228;SDS011;11783;50.350;6.576;2023-07-16T09:17:59;11.45;;;4.40;;
23228;SDS011;11783;50.350;6.576;2023-07-16T09:20:25;12.60;;;4.40;;
23228;SDS011;11783;50.350;6.576;2023-07-16T09:22:55;9.43;;;4.13;;
23228;SDS011;11783;50.350;6.576;2023-07-16T09:25:28;9.95;;;3.95;;
23228;SDS011;11783;50.350;6.576;2023-07-16T09:27:55;9.40;;;4.10;;
23228;SDS011;11783;50.350;6.576;2023-07-16T09:30:20;7.82;;;4.18;;
23228;SDS011;11783;50.350;6.576;2023-07-16T09:32:46;8.65;;;4.78;;
23228;SDS011;11783;50.350;6.576;2023-07-16T09:35:12;8.63;;;4.00;;
23228;SDS011;11783;50.350;6.576;2023-07-16T09:37:40;8.77;;;3.97;;
23228;SDS011;11783;50.350;6.576;2023-07-16T09:40:07;6.43;;;3.47;;
23228;SDS011;11783;50.350;6.576;2023-07-16T09:42:37;10.25;;;4.22;;
23228;SDS011;11783;50.350;6.576;2023-07-16T09:45:06;12.23;;;4.07;;
23228;SDS011;11783;50.350;6.576;2023-07-16T09:47:35;10.23;;;4.10;;
23228;SDS011;11783;50.350;6.576;2023-07-16T09:50:03;10.70;;;4.10;;
23228;SDS011;11783;50.350;6.576;2023-07-16T09:52:29;10.13;;;4.00;;
23228;SDS011;11783;50.350;6.576;2023-07-16T09:54:56;8.70;;;4.03;;
23228;SDS011;11783;50.350;6.576;2023-07-16T09:57:23;9.55;;;4.00;;
23228;SDS011;11783;50.350;6.576;2023-07-16T09:59:52;8.32;;;4.20;;
23228;SDS011;11783;50.350;6.576;2023-07-16T10:02:21;7.43;;;3.97;;
23228;SDS011;11783;50.350;6.576;2023-07-16T10:04:46;9.25;;;4.45;;
23228;SDS011;11783;50.350;6.576;2023-07-16T10:07:21;8.23;;;3.97;;
23228;SDS011;11783;50.350;6.576;2023-07-16T10:09:58;7.47;;;3.75;;
23228;SDS011;11783;50.350;6.576;2023-07-16T10:12:26;8.05;;;3.97;;
23228;SDS011;11783;50.350;6.576;2023-07-16T10:14:53;9.18;;;3.80;;
23228;SDS011;11783;50.350;6.576;2023-07-16T10:17:24;8.38;;;4.13;;
23228;SDS011;11783;50.350;6.576;2023-07-16T10:19:58;8.32;;;3.88;;
23228;SDS011;11783;50.350;6.576;2023-07-16T10:22:31;7.30;;;3.47;;
23228;SDS011;11783;50.350;6.576;2023-07-16T10:27:34;7.57;;;3.83;;
23228;SDS011;11783;50.350;6.576;2023-07-16T10:30:01;7.15;;;3.92;;
23228;SDS011;11783;50.350;6.576;2023-07-16T10:32:31;8.15;;;4.10;;
23228;SDS011;11783;50.350;6.576;2023-07-16T10:34:57;8.85;;;4.05;;
23228;SDS011;11783;50.350;6.576;2023-07-16T10:37:22;8.18;;;4.00;;
23228;SDS011;11783;50.350;6.576;2023-07-16T10:39:49;8.55;;;3.92;;
23228;SDS011;11783;50.350;6.576;2023-07-16T10:42:16;10.85;;;3.80;;
23228;SDS011;11783;50.350;6.576;2023-07-16T10:44:42;8.55;;;4.20;;
23228;SDS011;11783;50.350;6.576;2023-07-16T10:47:08;8.45;;;3.83;;
23228;SDS011;11783;50.350;6.576;2023-07-16T10:49:35;10.32;;;3.85;;
23228;SDS011;11783;50.350;6.576;2023-07-16T10:52:00;7.50;;;3.60;;
23228;SDS011;11783;50.350;6.576;2023-07-16T10:54:26;9.38;;;4.00;;
23228;SDS011;11783;50.350;6.576;2023-07-16T10:56:52;8.10;;;4.38;;
23228;SDS011;11783;50.350;6.576;2023-07-16T10:59:17;8.35;;;3.97;;
23228;SDS011;11783;50.350;6.576;2023-07-16T11:01:43;8.82;;;4.40;;
23228;SDS011;11783;50.350;6.576;2023-07-16T11:04:08;8.57;;;4.10;;
23228;SDS011;11783;50.350;6.576;2023-07-16T11:06:34;7.43;;;3.80;;
23228;SDS011;11783;50.350;6.576;2023-07-16T11:09:07;10.13;;;3.90;;
23228;SDS011;11783;50.350;6.576;2023-07-16T11:11:33;8.52;;;3.78;;
23228;SDS011;11783;50.350;6.576;2023-07-16T11:13:59;7.78;;;3.42;;
23228;SDS011;11783;50.350;6.576;2023-07-16T11:16:24;6.90;;;3.47;;
23228;SDS011;11783;50.350;6.576;2023-07-16T11:18:50;8.07;;;3.53;;
23228;SDS011;11783;50.350;6.576;2023-07-16T11:21:18;8.18;;;3.47;;
23228;SDS011;11783;50.350;6.576;2023-07-16T11:23:44;7.93;;;3.40;;
23228;SDS011;11783;50.350;6.576;2023-07-16T11:26:10;6.53;;;3.47;;
23228;SDS011;11783;50.350;6.576;2023-07-16T11:28:39;8.27;;;4.18;;
23228;SDS011;11783;50.350;6.576;2023-07-16T11:31:15;7.32;;;3.72;;
23228;SDS011;11783;50.350;6.576;2023-07-16T11:33:41;8.23;;;3.60;;
23228;SDS011;11783;50.350;6.576;2023-07-16T11:36:10;7.13;;;3.47;;
23228;SDS011;11783;50.350;6.576;2023-07-16T11:38:36;6.82;;;2.90;;
23228;SDS011;11783;50.350;6.576;2023-07-16T11:41:02;8.18;;;2.95;;
23228;SDS011;11783;50.350;6.576;2023-07-16T11:43:28;6.38;;;3.20;;
23228;SDS011;11783;50.350;6.576;2023-07-16T11:45:53;6.93;;;2.90;;
23228;SDS011;11783;50.350;6.576;2023-07-16T11:48:18;5.82;;;2.92;;
23228;SDS011;11783;50.350;6.576;2023-07-16T11:50:44;6.38;;;3.03;;
23228;SDS011;11783;50.350;6.576;2023-07-16T11:53:10;6.50;;;3.30;;
23228;SDS011;11783;50.350;6.576;2023-07-16T11:55:36;6.93;;;2.90;;
23228;SDS011;11783;50.350;6.576;2023-07-16T11:58:01;6.65;;;3.10;;
23228;SDS011;11783;50.350;6.576;2023-07-16T12:00:28;8.50;;;2.88;;
23228;SDS011;11783;50.350;6.576;2023-07-16T12:02:53;7.57;;;3.28;;
23228;SDS011;11783;50.350;6.576;2023-07-16T12:05:19;8.40;;;3.47;;
23228;SDS011;11783;50.350;6.576;2023-07-16T12:07:45;7.22;;;3.30;;
23228;SDS011;11783;50.350;6.576;2023-07-16T12:10:11;7.55;;;3.08;;
23228;SDS011;11783;50.350;6.576;2023-07-16T12:12:36;6.53;;;3.35;;
23228;SDS011;11783;50.350;6.576;2023-07-16T12:15:03;7.03;;;3.47;;
23228;SDS011;11783;50.350;6.576;2023-07-16T12:17:29;8.43;;;3.33;;
23228;SDS011;11783;50.350;6.576;2023-07-16T12:19:54;7.93;;;3.53;;
23228;SDS011;11783;50.350;6.576;2023-07-16T12:22:19;7.22;;;3.70;;
23228;SDS011;11783;50.350;6.576;2023-07-16T12:24:46;6.28;;;3.30;;
23228;SDS011;11783;50.350;6.576;2023-07-16T12:27:11;7.63;;;3.45;;
23228;SDS011;11783;50.350;6.576;2023-07-16T12:29:36;7.07;;;3.25;;
23228;SDS011;11783;50.350;6.576;2023-07-16T12:32:02;8.13;;;3.20;;
23228;SDS011;11783;50.350;6.576;2023-07-16T12:34:27;8.07;;;3.63;;
23228;SDS011;11783;50.350;6.576;2023-07-16T12:36:53;8.00;;;3.70;;
23228;SDS011;11783;50.350;6.576;2023-07-16T12:39:20;7.40;;;3.63;;
23228;SDS011;11783;50.350;6.576;2023-07-16T12:41:45;7.20;;;3.10;;
23228;SDS011;11783;50.350;6.576;2023-07-16T12:44:11;6.43;;;3.00;;
23228;SDS011;11783;50.350;6.576;2023-07-16T12:46:36;8.07;;;3.35;;
23228;SDS011;11783;50.350;6.576;2023-07-16T12:49:02;7.60;;;3.33;;
23228;SDS011;11783;50.350;6.576;2023-07-16T12:51:27;8.60;;;3.67;;
23228;SDS011;11783;50.350;6.576;2023-07-16T12:53:52;5.85;;;3.08;;
23228;SDS011;11783;50.350;6.576;2023-07-16T12:56:18;5.78;;;2.70;;
23228;SDS011;11783;50.350;6.576;2023-07-16T12:58:43;7.05;;;3.15;;
23228;SDS011;11783;50.350;6.576;2023-07-16T13:01:09;6.40;;;2.63;;
23228;SDS011;11783;50.350;6.576;2023-07-16T13:03:34;7.47;;;2.95;;
23228;SDS011;11783;50.350;6.576;2023-07-16T13:06:00;7.45;;;2.75;;
23228;SDS011;11783;50.350;6.576;2023-07-16T13:08:25;5.47;;;2.50;;
23228;SDS011;11783;50.350;6.576;2023-07-16T13:10:51;7.85;;;3.00;;
23228;SDS011;11783;50.350;6.576;2023-07-16T13:13:16;6.32;;;2.53;;
23228;SDS011;11783;50.350;6.576;2023-07-16T13:15:41;8.75;;;2.70;;
23228;SDS011;11783;50.350;6.576;2023-07-16T13:18:09;5.70;;;2.50;;
23228;SDS011;11783;50.350;6.576;2023-07-16T13:20:35;8.00;;;2.63;;
23228;SDS011;11783;50.350;6.576;2023-07-16T13:23:00;5.60;;;2.88;;
23228;SDS011;11783;50.350;6.576;2023-07-16T13:25:25;8.57;;;2.92;;
23228;SDS011;11783;50.350;6.576;2023-07-16T13:27:51;6.40;;;2.97;;
23228;SDS011;11783;50.350;6.576;2023-07-16T13:30:18;6.18;;;2.70;;
23228;SDS011;11783;50.350;6.576;2023-07-16T13:32:43;6.07;;;2.70;;
23228;SDS011;11783;50.350;6.576;2023-07-16T13:35:09;6.15;;;2.70;;
23228;SDS011;11783;50.350;6.576;2023-07-16T13:37:34;5.72;;;2.75;;
23228;SDS011;11783;50.350;6.576;2023-07-16T13:39:59;5.63;;;2.42;;
23228;SDS011;11783;50.350;6.576;2023-07-16T13:42:25;9.23;;;3.05;;
23228;SDS011;11783;50.350;6.576;2023-07-16T13:44:50;6.72;;;2.80;;
23228;SDS011;11783;50.350;6.576;2023-07-16T13:47:15;7.25;;;2.63;;
23228;SDS011;11783;50.350;6.576;2023-07-16T13:49:41;6.05;;;2.60;;
23228;SDS011;11783;50.350;6.576;2023-07-16T13:52:06;6.10;;;2.90;;
23228;SDS011;11783;50.350;6.576;2023-07-16T13:54:31;6.70;;;2.60;;
23228;SDS011;11783;50.350;6.576;2023-07-16T13:56:57;6.55;;;2.58;;
23228;SDS011;11783;50.350;6.576;2023-07-16T13:59:22;7.25;;;2.55;;
23228;SDS011;11783;50.350;6.576;2023-07-16T14:01:48;6.43;;;2.85;;
23228;SDS011;11783;50.350;6.576;2023-07-16T14:04:24;6.43;;;2.78;;
23228;SDS011;11783;50.350;6.576;2023-07-16T14:06:49;5.75;;;2.97;;
23228;SDS011;11783;50.350;6.576;2023-07-16T14:09:14;7.20;;;2.90;;
23228;SDS011;11783;50.350;6.576;2023-07-16T14:11:40;6.20;;;2.63;;
23228;SDS011;11783;50.350;6.576;2023-07-16T14:14:05;6.80;;;3.05;;
23228;SDS011;11783;50.350;6.576;2023-07-16T14:16:30;6.78;;;2.97;;
23228;SDS011;11783;50.350;6.576;2023-07-16T14:18:56;7.82;;;2.83;;
23228;SDS011;11783;50.350;6.576;2023-07-16T14:21:21;6.85;;;2.70;;
23228;SDS011;11783;50.350;6.576;2023-07-16T14:23:47;6.30;;;2.80;;
23228;SDS011;11783;50.350;6.576;2023-07-16T14:26:12;8.90;;;2.80;;
23228;SDS011;11783;50.350;6.576;2023-07-16T14:28:37;7.68;;;3.10;;
23228;SDS011;11783;50.350;6.576;2023-07-16T14:31:03;7.70;;;2.92;;
23228;SDS011;11783;50.350;6.576;2023-07-16T14:33:29;6.28;;;2.53;;
23228;SDS011;11783;50.350;6.576;2023-07-16T14:35:54;6.43;;;2.60;;
23228;SDS011;11783;50.350;6.576;2023-07-16T14:38:19;7.60;;;2.60;;
23228;SDS011;11783;50.350;6.576;2023-07-16T14:40:45;5.75;;;3.15;;
23228;SDS011;11783;50.350;6.576;2023-07-16T14:43:11;6.85;;;2.70;;
23228;SDS011;11783;50.350;6.576;2023-07-16T14:45:36;6.65;;;2.90;;